sensor_id;sensor_type;location;lat;lon;timestamp;temperature;humidity
23540;DHT22;11947;50.810;4.394;2023-07-31T01:28:17;17.10;99.90
23540;DHT22;11947;50.810;4.394;2023-07-31T01:31:02;17.20;99.90
23540;DHT22;11947;50.810;4.394;2023-07-31T01:34:04;17.20;99.90
23540;DHT22;11947;50.810;4.394;2023-07-31T01:37:02;17.20;99.90
23540;DHT22;11947;50.810;4.394;2023-07-31T02:09:12;17.30;99.90
23540;DHT22;11947;50.810;4.394;2023-07-31T02:14:36;17.20;99.90
23540;DHT22;11947;50.810;4.394;2023-07-31T02:17:03;17.20;99.90
23540;DHT22;11947;50.810;4.394;2023-07-31T02:19:30;17.20;99.90
23540;DHT22;11947;50.810;4.394;2023-07-31T02:22:20;17.20;99.90
23540;DHT22;11947;50.810;4.394;2023-07-31T02:24:57;17.20;99.90
23540;DHT22;11947;50.810;4.394;2023-07-31T02:34:09;17.40;99.90
23540;DHT22;11947;50.810;4.394;2023-07-31T02:49:27;17.40;99.90
23540;DHT22;11947;50.810;4.394;2023-07-31T02:52:40;17.40;99.90
23540;DHT22;11947;50.810;4.394;2023-07-31T03:23:41;17.40;99.90
23540;DHT22;11947;50.810;4.394;2023-07-31T03:26:08;17.50;99.90
23540;DHT22;11947;50.810;4.394;2023-07-31T03:28:34;17.50;99.90
23540;DHT22;11947;50.810;4.394;2023-07-31T03:31:00;17.40;99.90
23540;DHT22;11947;50.810;4.394;2023-07-31T03:33:26;17.50;99.90
23540;DHT22;11947;50.810;4.394;2023-07-31T03:35:52;17.40;99.90
23540;DHT22;11947;50.810;4.394;2023-07-31T03:38:20;17.40;99.90
23540;DHT22;11947;50.810;4.394;2023-07-31T03:40:46;17.40;99.90
23540;DHT22;11947;50.810;4.394;2023-07-31T03:43:12;17.40;99.90
23540;DHT22;11947;50.810;4.394;2023-07-31T03:45:40;17.30;99.90
23540;DHT22;11947;50.810;4.394;2023-07-31T03:48:06;17.30;99.90
23540;DHT22;11947;50.810;4.394;2023-07-31T03:50:35;17.30;99.90
23540;DHT22;11947;50.810;4.394;2023-07-31T03:53:00;17.20;99.90
23540;DHT22;11947;50.810;4.394;2023-07-31T03:55:26;17.10;99.90
23540;DHT22;11947;50.810;4.394;2023-07-31T03:57:52;17.10;99.90
23540;DHT22;11947;50.810;4.394;2023-07-31T04:00:20;17.00;99.90
23540;DHT22;11947;50.810;4.394;2023-07-31T04:02:50;17.10;99.90
23540;DHT22;11947;50.810;4.394;2023-07-31T04:05:32;17.10;99.90
23540;DHT22;11947;50.810;4.394;2023-07-31T04:08:15;17.10;99.90
23540;DHT22;11947;50.810;4.394;2023-07-31T04:10:50;17.10;99.90
23540;DHT22;11947;50.810;4.394;2023-07-31T04:16:50;17.00;99.90
23540;DHT22;11947;50.810;4.394;2023-07-31T04:24:48;16.90;99.90
23540;DHT22;11947;50.810;4.394;2023-07-31T04:27:37;16.90;99.90
23540;DHT22;11947;50.810;4.394;2023-07-31T04:31:08;16.90;99.90
23540;DHT22;11947;50.810;4.394;2023-07-31T04:39:27;16.90;99.90
23540;DHT22;11947;50.810;4.394;2023-07-31T04:47:53;17.00;99.90
23540;DHT22;11947;50.810;4.394;2023-07-31T04:50:43;17.00;99.90
23540;DHT22;11947;50.810;4.394;2023-07-31T04:53:30;17.00;99.90
23540;DHT22;11947;50.810;4.394;2023-07-31T04:56:05;17.00;99.90
23540;DHT22;11947;50.810;4.394;2023-07-31T04:58:35;16.80;99.90
23540;DHT22;11947;50.810;4.394;2023-07-31T05:01:12;16.90;99.90
23540;DHT22;11947;50.810;4.394;2023-07-31T05:03:41;16.80;99.90
23540;DHT22;11947;50.810;4.394;2023-07-31T05:06:35;16.80;99.90
23540;DHT22;11947;50.810;4.394;2023-07-31T05:09:03;16.70;99.90
23540;DHT22;11947;50.810;4.394;2023-07-31T05:11:30;16.70;99.90
23540;DHT22;11947;50.810;4.394;2023-07-31T05:13:57;16.70;99.90
23540;DHT22;11947;50.810;4.394;2023-07-31T05:16:31;16.60;99.90
23540;DHT22;11947;50.810;4.394;2023-07-31T05:19:03;16.70;99.90
23540;DHT22;11947;50.810;4.394;2023-07-31T05:21:28;16.60;99.90
23540;DHT22;11947;50.810;4.394;2023-07-31T05:23:57;16.60;99.90
23540;DHT22;11947;50.810;4.394;2023-07-31T05:26:59;16.60;99.90
23540;DHT22;11947;50.810;4.394;2023-07-31T05:29:44;16.50;99.90
23540;DHT22;11947;50.810;4.394;2023-07-31T05:37:22;16.50;99.90
23540;DHT22;11947;50.810;4.394;2023-07-31T05:40:03;16.50;99.90
23540;DHT22;11947;50.810;4.394;2023-07-31T05:42:28;16.60;99.90
23540;DHT22;11947;50.810;4.394;2023-07-31T05:45:14;16.60;99.90
23540;DHT22;11947;50.810;4.394;2023-07-31T05:47:46;16.60;99.90
23540;DHT22;11947;50.810;4.394;2023-07-31T05:50:12;16.60;99.90
23540;DHT22;11947;50.810;4.394;2023-07-31T05:52:44;16.60;99.90
23540;DHT22;11947;50.810;4.394;2023-07-31T05:55:11;16.60;99.90
23540;DHT22;11947;50.810;4.394;2023-07-31T05:57:36;16.50;99.90
23540;DHT22;11947;50.810;4.394;2023-07-31T06:00:02;16.60;99.90
23540;DHT22;11947;50.810;4.394;2023-07-31T06:02:28;16.60;99.90
23540;DHT22;11947;50.810;4.394;2023-07-31T06:04:58;16.60;99.90
23540;DHT22;11947;50.810;4.394;2023-07-31T06:07:27;16.60;99.90
23540;DHT22;11947;50.810;4.394;2023-07-31T06:10:07;16.60;99.90
23540;DHT22;11947;50.810;4.394;2023-07-31T06:12:36;16.60;99.90
23540;DHT22;11947;50.810;4.394;2023-07-31T06:15:13;16.60;99.90
23540;DHT22;11947;50.810;4.394;2023-07-31T06:18:43;16.60;99.90
23540;DHT22;11947;50.810;4.394;2023-07-31T06:21:31;16.70;99.90
23540;DHT22;11947;50.810;4.394;2023-07-31T06:24:01;16.60;99.90
23540;DHT22;11947;50.810;4.394;2023-07-31T06:26:28;16.70;99.90
23540;DHT22;11947;50.810;4.394;2023-07-31T06:28:54;16.80;99.90
23540;DHT22;11947;50.810;4.394;2023-07-31T06:31:20;16.80;99.90
23540;DHT22;11947;50.810;4.394;2023-07-31T06:33:49;16.80;99.90
23540;DHT22;11947;50.810;4.394;2023-07-31T06:36:19;16.60;99.90
23540;DHT22;11947;50.810;4.394;2023-07-31T06:38:50;16.60;99.90
23540;DHT22;11947;50.810;4.394;2023-07-31T06:41:15;16.60;99.90
23540;DHT22;11947;50.810;4.394;2023-07-31T06:43:41;16.60;99.90
23540;DHT22;11947;50.810;4.394;2023-07-31T06:46:30;16.60;99.90
23540;DHT22;11947;50.810;4.394;2023-07-31T06:49:32;16.70;99.90
23540;DHT22;11947;50.810;4.394;2023-07-31T06:51:59;16.80;99.90
23540;DHT22;11947;50.810;4.394;2023-07-31T06:54:28;16.80;99.90
23540;DHT22;11947;50.810;4.394;2023-07-31T06:57:05;16.90;99.90
23540;DHT22;11947;50.810;4.394;2023-07-31T07:02:39;17.00;99.90
23540;DHT22;11947;50.810;4.394;2023-07-31T07:05:08;17.10;99.90
23540;DHT22;11947;50.810;4.394;2023-07-31T07:07:36;17.30;99.90
23540;DHT22;11947;50.810;4.394;2023-07-31T07:10:05;17.40;99.90
23540;DHT22;11947;50.810;4.394;2023-07-31T07:12:32;17.40;99.90
23540;DHT22;11947;50.810;4.394;2023-07-31T07:15:06;17.50;99.90
23540;DHT22;11947;50.810;4.394;2023-07-31T07:17:37;17.40;99.90
23540;DHT22;11947;50.810;4.394;2023-07-31T07:20:03;17.30;99.90
23540;DHT22;11947;50.810;4.394;2023-07-31T07:22:29;17.40;99.90
23540;DHT22;11947;50.810;4.394;2023-07-31T07:24:55;17.50;99.90
23540;DHT22;11947;50.810;4.394;2023-07-31T07:27:21;17.50;99.90
23540;DHT22;11947;50.810;4.394;2023-07-31T07:29:47;17.50;99.90
23540;DHT22;11947;50.810;4.394;2023-07-31T07:32:13;17.50;99.90
23540;DHT22;11947;50.810;4.394;2023-07-31T07:34:42;17.50;99.90
23540;DHT22;11947;50.810;4.394;2023-07-31T07:39:54;17.40;99.90
23540;DHT22;11947;50.810;4.394;2023-07-31T07:42:26;17.40;99.90
23540;DHT22;11947;50.810;4.394;2023-07-31T07:45:03;17.50;99.90
23540;DHT22;11947;50.810;4.394;2023-07-31T07:47:50;17.70;99.90
23540;DHT22;11947;50.810;4.394;2023-07-31T07:50:17;17.70;99.90
23540;DHT22;11947;50.810;4.394;2023-07-31T07:52:44;17.70;99.90
23540;DHT22;11947;50.810;4.394;2023-07-31T07:55:09;17.70;99.90
23540;DHT22;11947;50.810;4.394;2023-07-31T07:57:35;17.70;99.90
23540;DHT22;11947;50.810;4.394;2023-07-31T08:00:01;17.60;99.90
23540;DHT22;11947;50.810;4.394;2023-07-31T08:02:29;17.60;99.90
23540;DHT22;11947;50.810;4.394;2023-07-31T08:04:54;17.80;99.90
23540;DHT22;11947;50.810;4.394;2023-07-31T08:07:22;17.80;99.90
23540;DHT22;11947;50.810;4.394;2023-07-31T08:09:49;17.90;99.90
23540;DHT22;11947;50.810;4.394;2023-07-31T08:12:14;18.00;99.90
23540;DHT22;11947;50.810;4.394;2023-07-31T08:14:43;17.90;99.90
23540;DHT22;11947;50.810;4.394;2023-07-31T08:17:08;17.90;99.90
23540;DHT22;11947;50.810;4.394;2023-07-31T08:19:34;17.90;99.90
23540;DHT22;11947;50.810;4.394;2023-07-31T08:22:00;17.90;99.90
23540;DHT22;11947;50.810;4.394;2023-07-31T08:24:25;18.00;99.90
23540;DHT22;11947;50.810;4.394;2023-07-31T08:26:51;18.10;99.90
23540;DHT22;11947;50.810;4.394;2023-07-31T08:29:16;18.00;99.90
23540;DHT22;11947;50.810;4.394;2023-07-31T08:31:42;17.80;99.90
23540;DHT22;11947;50.810;4.394;2023-07-31T08:34:08;17.60;99.90
23540;DHT22;11947;50.810;4.394;2023-07-31T08:36:35;17.50;99.90
23540;DHT22;11947;50.810;4.394;2023-07-31T08:39:03;17.50;99.90
23540;DHT22;11947;50.810;4.394;2023-07-31T08:41:29;17.60;99.90
23540;DHT22;11947;50.810;4.394;2023-07-31T08:43:55;17.70;99.90
23540;DHT22;11947;50.810;4.394;2023-07-31T08:46:22;17.80;99.90
23540;DHT22;11947;50.810;4.394;2023-07-31T08:48:48;17.70;99.90
23540;DHT22;11947;50.810;4.394;2023-07-31T08:51:16;17.80;99.90
23540;DHT22;11947;50.810;4.394;2023-07-31T08:53:42;17.80;99.90
23540;DHT22;11947;50.810;4.394;2023-07-31T08:56:08;17.70;99.90
23540;DHT22;11947;50.810;4.394;2023-07-31T08:58:35;17.80;99.90
23540;DHT22;11947;50.810;4.394;2023-07-31T09:01:04;17.80;99.90
23540;DHT22;11947;50.810;4.394;2023-07-31T09:03:40;17.90;99.90
23540;DHT22;11947;50.810;4.394;2023-07-31T09:06:06;17.90;99.90
23540;DHT22;11947;50.810;4.394;2023-07-31T09:08:42;18.00;99.90
23540;DHT22;11947;50.810;4.394;2023-07-31T09:11:08;18.10;99.90
23540;DHT22;11947;50.810;4.394;2023-07-31T09:13:34;18.10;99.90
23540;DHT22;11947;50.810;4.394;2023-07-31T09:16:00;18.10;99.90
23540;DHT22;11947;50.810;4.394;2023-07-31T09:18:25;18.20;99.90
23540;DHT22;11947;50.810;4.394;2023-07-31T09:21:05;18.40;99.90
23540;DHT22;11947;50.810;4.394;2023-07-31T09:23:44;18.40;99.90
23540;DHT22;11947;50.810;4.394;2023-07-31T09:26:32;18.40;99.90
23540;DHT22;11947;50.810;4.394;2023-07-31T09:29:00;18.50;99.90
23540;DHT22;11947;50.810;4.394;2023-07-31T09:31:43;18.60;99.90
23540;DHT22;11947;50.810;4.394;2023-07-31T09:34:09;18.70;99.90
23540;DHT22;11947;50.810;4.394;2023-07-31T09:36:41;18.70;99.90
23540;DHT22;11947;50.810;4.394;2023-07-31T09:39:12;18.60;99.90
23540;DHT22;11947;50.810;4.394;2023-07-31T09:41:40;18.40;99.90
23540;DHT22;11947;50.810;4.394;2023-07-31T09:44:07;18.30;99.90
23540;DHT22;11947;50.810;4.394;2023-07-31T09:49:13;18.20;99.90
23540;DHT22;11947;50.810;4.394;2023-07-31T09:51:41;18.20;99.90
23540;DHT22;11947;50.810;4.394;2023-07-31T09:56:33;18.20;99.90
23540;DHT22;11947;50.810;4.394;2023-07-31T09:59:05;18.20;99.90
23540;DHT22;11947;50.810;4.394;2023-07-31T10:04:05;18.20;99.90
23540;DHT22;11947;50.810;4.394;2023-07-31T10:06:33;18.20;99.90
23540;DHT22;11947;50.810;4.394;2023-07-31T10:09:00;18.20;99.90
23540;DHT22;11947;50.810;4.394;2023-07-31T10:11:27;18.30;99.90
23540;DHT22;11947;50.810;4.394;2023-07-31T10:13:55;18.30;99.90
23540;DHT22;11947;50.810;4.394;2023-07-31T10:16:22;18.30;99.90
23540;DHT22;11947;50.810;4.394;2023-07-31T10:18:54;18.40;99.90
23540;DHT22;11947;50.810;4.394;2023-07-31T10:21:22;18.70;99.90
23540;DHT22;11947;50.810;4.394;2023-07-31T10:23:49;18.80;99.90
23540;DHT22;11947;50.810;4.394;2023-07-31T10:26:17;19.00;99.90
23540;DHT22;11947;50.810;4.394;2023-07-31T10:28:45;19.00;99.90
23540;DHT22;11947;50.810;4.394;2023-07-31T10:31:12;19.10;99.90
23540;DHT22;11947;50.810;4.394;2023-07-31T10:33:39;19.10;99.90
23540;DHT22;11947;50.810;4.394;2023-07-31T10:36:20;19.00;99.90
23540;DHT22;11947;50.810;4.394;2023-07-31T10:38:49;19.10;99.90
23540;DHT22;11947;50.810;4.394;2023-07-31T10:41:18;19.00;99.90
23540;DHT22;11947;50.810;4.394;2023-07-31T10:43:56;19.00;99.90
23540;DHT22;11947;50.810;4.394;2023-07-31T10:46:22;18.90;99.90
23540;DHT22;11947;50.810;4.394;2023-07-31T10:49:02;18.80;99.90
23540;DHT22;11947;50.810;4.394;2023-07-31T10:51:36;18.90;99.90
23540;DHT22;11947;50.810;4.394;2023-07-31T10:54:16;19.00;99.90
23540;DHT22;11947;50.810;4.394;2023-07-31T10:56:50;19.00;99.90
23540;DHT22;11947;50.810;4.394;2023-07-31T10:59:41;19.10;99.90
23540;DHT22;11947;50.810;4.394;2023-07-31T11:02:34;19.20;99.90
23540;DHT22;11947;50.810;4.394;2023-07-31T11:05:09;19.10;99.90
23540;DHT22;11947;50.810;4.394;2023-07-31T11:07:56;19.10;99.90
23540;DHT22;11947;50.810;4.394;2023-07-31T11:10:22;19.10;99.90
23540;DHT22;11947;50.810;4.394;2023-07-31T11:12:51;19.10;99.90
23540;DHT22;11947;50.810;4.394;2023-07-31T11:15:16;19.10;99.90
23540;DHT22;11947;50.810;4.394;2023-07-31T11:17:42;19.10;99.90
23540;DHT22;11947;50.810;4.394;2023-07-31T11:20:08;19.20;99.90
23540;DHT22;11947;50.810;4.394;2023-07-31T11:22:38;19.20;99.90
23540;DHT22;11947;50.810;4.394;2023-07-31T11:25:04;19.20;99.90
23540;DHT22;11947;50.810;4.394;2023-07-31T11:27:30;19.10;99.90
23540;DHT22;11947;50.810;4.394;2023-07-31T11:30:05;19.10;99.90
23540;DHT22;11947;50.810;4.394;2023-07-31T11:32:49;19.10;99.90
23540;DHT22;11947;50.810;4.394;2023-07-31T11:35:17;19.20;99.90
23540;DHT22;11947;50.810;4.394;2023-07-31T11:37:43;19.20;99.90
23540;DHT22;11947;50.810;4.394;2023-07-31T11:40:10;19.40;99.90
23540;DHT22;11947;50.810;4.394;2023-07-31T11:42:36;19.60;99.90
23540;DHT22;11947;50.810;4.394;2023-07-31T11:45:09;19.60;99.90
23540;DHT22;11947;50.810;4.394;2023-07-31T11:47:36;19.70;99.90
23540;DHT22;11947;50.810;4.394;2023-07-31T11:50:05;19.60;99.90
23540;DHT22;11947;50.810;4.394;2023-07-31T11:52:39;19.70;99.90
23540;DHT22;11947;50.810;4.394;2023-07-31T11:55:07;19.70;99.90
23540;DHT22;11947;50.810;4.394;2023-07-31T11:57:36;19.70;99.90
23540;DHT22;11947;50.810;4.394;2023-07-31T12:00:03;19.70;99.90
23540;DHT22;11947;50.810;4.394;2023-07-31T12:02:29;19.80;99.90
23540;DHT22;11947;50.810;4.394;2023-07-31T12:04:55;19.90;99.90
23540;DHT22;11947;50.810;4.394;2023-07-31T12:07:21;20.20;99.90
23540;DHT22;11947;50.810;4.394;2023-07-31T12:09:54;20.30;99.90
23540;DHT22;11947;50.810;4.394;2023-07-31T12:12:25;20.40;99.90
23540;DHT22;11947;50.810;4.394;2023-07-31T12:14:51;20.50;99.90
23540;DHT22;11947;50.810;4.394;2023-07-31T12:17:19;20.40;99.90
23540;DHT22;11947;50.810;4.394;2023-07-31T12:19:48;20.30;99.90
23540;DHT22;11947;50.810;4.394;2023-07-31T12:22:15;20.30;99.90
23540;DHT22;11947;50.810;4.394;2023-07-31T12:24:43;20.30;99.90
23540;DHT22;11947;50.810;4.394;2023-07-31T12:27:14;20.30;99.90
23540;DHT22;11947;50.810;4.394;2023-07-31T12:29:50;20.10;99.90
23540;DHT22;11947;50.810;4.394;2023-07-31T12:32:31;20.00;99.90
23540;DHT22;11947;50.810;4.394;2023-07-31T12:35:01;20.00;99.90
23540;DHT22;11947;50.810;4.394;2023-07-31T12:37:32;20.10;99.90
23540;DHT22;11947;50.810;4.394;2023-07-31T12:39:58;20.00;99.90
23540;DHT22;11947;50.810;4.394;2023-07-31T12:42:30;20.00;99.90
23540;DHT22;11947;50.810;4.394;2023-07-31T12:44:56;20.00;99.90
23540;DHT22;11947;50.810;4.394;2023-07-31T12:47:22;20.10;99.90
23540;DHT22;11947;50.810;4.394;2023-07-31T12:49:48;20.40;99.90
23540;DHT22;11947;50.810;4.394;2023-07-31T12:52:14;20.60;99.90
23540;DHT22;11947;50.810;4.394;2023-07-31T12:54:39;20.50;99.90
23540;DHT22;11947;50.810;4.394;2023-07-31T12:57:05;20.30;99.90
23540;DHT22;11947;50.810;4.394;2023-07-31T12:59:30;20.20;99.90
23540;DHT22;11947;50.810;4.394;2023-07-31T13:01:56;20.10;99.90
23540;DHT22;11947;50.810;4.394;2023-07-31T13:04:22;20.00;99.90
23540;DHT22;11947;50.810;4.394;2023-07-31T13:06:47;19.80;99.90
23540;DHT22;11947;50.810;4.394;2023-07-31T13:09:13;19.90;99.90
23540;DHT22;11947;50.810;4.394;2023-07-31T13:11:43;19.90;99.90
23540;DHT22;11947;50.810;4.394;2023-07-31T13:14:08;19.90;99.90
23540;DHT22;11947;50.810;4.394;2023-07-31T13:16:35;19.80;99.90
23540;DHT22;11947;50.810;4.394;2023-07-31T13:19:03;19.60;99.90
23540;DHT22;11947;50.810;4.394;2023-07-31T13:21:29;19.40;99.90
23540;DHT22;11947;50.810;4.394;2023-07-31T13:23:55;19.30;99.90
23540;DHT22;11947;50.810;4.394;2023-07-31T13:26:23;19.30;99.90
23540;DHT22;11947;50.810;4.394;2023-07-31T13:28:48;19.40;99.90
23540;DHT22;11947;50.810;4.394;2023-07-31T13:31:14;19.30;99.90
23540;DHT22;11947;50.810;4.394;2023-07-31T13:33:40;19.20;99.90
23540;DHT22;11947;50.810;4.394;2023-07-31T13:36:05;19.10;99.90
23540;DHT22;11947;50.810;4.394;2023-07-31T13:38:31;18.90;99.90
23540;DHT22;11947;50.810;4.394;2023-07-31T13:40:57;18.80;99.90
23540;DHT22;11947;50.810;4.394;2023-07-31T13:43:23;18.80;99.90
23540;DHT22;11947;50.810;4.394;2023-07-31T13:45:48;18.70;99.90
23540;DHT22;11947;50.810;4.394;2023-07-31T13:48:14;18.60;99.90
23540;DHT22;11947;50.810;4.394;2023-07-31T13:50:39;18.60;99.90
23540;DHT22;11947;50.810;4.394;2023-07-31T13:53:05;18.60;99.90
23540;DHT22;11947;50.810;4.394;2023-07-31T13:55:31;18.60;99.90
23540;DHT22;11947;50.810;4.394;2023-07-31T13:57:56;18.50;99.90
23540;DHT22;11947;50.810;4.394;2023-07-31T14:00:22;18.50;99.90
23540;DHT22;11947;50.810;4.394;2023-07-31T14:02:47;18.40;99.90
23540;DHT22;11947;50.810;4.394;2023-07-31T14:05:13;18.40;99.90
23540;DHT22;11947;50.810;4.394;2023-07-31T14:07:39;18.40;99.90
23540;DHT22;11947;50.810;4.394;2023-07-31T14:10:05;18.40;99.90
23540;DHT22;11947;50.810;4.394;2023-07-31T14:12:31;18.30;99.90
23540;DHT22;11947;50.810;4.394;2023-07-31T14:14:56;18.30;99.90
23540;DHT22;11947;50.810;4.394;2023-07-31T14:17:22;18.40;99.90
23540;DHT22;11947;50.810;4.394;2023-07-31T14:19:47;18.40;99.90
23540;DHT22;11947;50.810;4.394;2023-07-31T14:22:13;18.40;99.90
23540;DHT22;11947;50.810;4.394;2023-07-31T14:24:39;18.40;99.90
23540;DHT22;11947;50.810;4.394;2023-07-31T14:27:04;18.30;99.90
23540;DHT22;11947;50.810;4.394;2023-07-31T14:29:30;18.40;99.90
23540;DHT22;11947;50.810;4.394;2023-07-31T14:31:56;18.50;99.90
23540;DHT22;11947;50.810;4.394;2023-07-31T14:34:21;18.50;99.90
23540;DHT22;11947;50.810;4.394;2023-07-31T14:36:47;18.50;99.90
23540;DHT22;11947;50.810;4.394;2023-07-31T14:39:13;18.50;99.90
23540;DHT22;11947;50.810;4.394;2023-07-31T14:41:39;18.50;99.90
23540;DHT22;11947;50.810;4.394;2023-07-31T14:44:04;18.50;99.90
23540;DHT22;11947;50.810;4.394;2023-07-31T14:46:30;18.50;99.90
23540;DHT22;11947;50.810;4.394;2023-07-31T14:48:56;18.60;99.90
23540;DHT22;11947;50.810;4.394;2023-07-31T14:51:21;18.60;99.90
23540;DHT22;11947;50.810;4.394;2023-07-31T14:53:47;18.60;99.90
23540;DHT22;11947;50.810;4.394;2023-07-31T14:56:13;18.50;99.90
23540;DHT22;11947;50.810;4.394;2023-07-31T14:58:38;18.40;99.90
23540;DHT22;11947;50.810;4.394;2023-07-31T15:01:05;18.40;99.90
23540;DHT22;11947;50.810;4.394;2023-07-31T15:03:30;18.30;99.90
23540;DHT22;11947;50.810;4.394;2023-07-31T15:05:56;18.30;99.90
23540;DHT22;11947;50.810;4.394;2023-07-31T15:08:22;18.30;99.90
23540;DHT22;11947;50.810;4.394;2023-07-31T15:10:47;18.30;99.90
23540;DHT22;11947;50.810;4.394;2023-07-31T15:13:14;18.30;99.90
23540;DHT22;11947;50.810;4.394;2023-07-31T15:15:40;18.30;99.90
23540;DHT22;11947;50.810;4.394;2023-07-31T15:18:05;18.10;99.90
23540;DHT22;11947;50.810;4.394;2023-07-31T15:20:31;18.20;99.90
23540;DHT22;11947;50.810;4.394;2023-07-31T15:22:58;18.20;99.90
23540;DHT22;11947;50.810;4.394;2023-07-31T15:25:23;18.30;99.90
23540;DHT22;11947;50.810;4.394;2023-07-31T15:27:49;18.30;99.90
23540;DHT22;11947;50.810;4.394;2023-07-31T15:30:14;18.30;99.90
23540;DHT22;11947;50.810;4.394;2023-07-31T15:32:40;18.20;99.90
23540;DHT22;11947;50.810;4.394;2023-07-31T15:35:06;18.20;99.90
23540;DHT22;11947;50.810;4.394;2023-07-31T15:37:35;18.20;99.90
23540;DHT22;11947;50.810;4.394;2023-07-31T15:40:01;18.20;99.90
23540;DHT22;11947;50.810;4.394;2023-07-31T15:44:54;18.10;99.90
23540;DHT22;11947;50.810;4.394;2023-07-31T15:47:20;18.10;99.90
23540;DHT22;11947;50.810;4.394;2023-07-31T15:49:45;18.20;99.90
23540;DHT22;11947;50.810;4.394;2023-07-31T15:52:11;18.20;99.90
23540;DHT22;11947;50.810;4.394;2023-07-31T15:54:37;18.20;99.90
23540;DHT22;11947;50.810;4.394;2023-07-31T15:57:31;18.30;99.90
23540;DHT22;11947;50.810;4.394;2023-07-31T16:03:01;17.90;99.90
23540;DHT22;11947;50.810;4.394;2023-07-31T16:05:27;18.00;99.90
23540;DHT22;11947;50.810;4.394;2023-07-31T16:21:03;18.00;99.90
23540;DHT22;11947;50.810;4.394;2023-07-31T16:29:26;18.00;99.90
23540;DHT22;11947;50.810;4.394;2023-07-31T16:32:37;18.00;99.90
23540;DHT22;11947;50.810;4.394;2023-07-31T16:35:18;18.00;99.90
23540;DHT22;11947;50.810;4.394;2023-07-31T16:37:45;18.00;99.90
23540;DHT22;11947;50.810;4.394;2023-07-31T16:40:30;18.00;99.90
23540;DHT22;11947;50.810;4.394;2023-07-31T16:43:01;18.00;99.90
23540;DHT22;11947;50.810;4.394;2023-07-31T16:45:35;18.10;99.90
23540;DHT22;11947;50.810;4.394;2023-07-31T16:48:01;18.00;99.90
23540;DHT22;11947;50.810;4.394;2023-07-31T16:50:28;18.00;99.90
23540;DHT22;11947;50.810;4.394;2023-07-31T16:52:53;18.00;99.90
23540;DHT22;11947;50.810;4.394;2023-07-31T16:55:43;18.00;99.90
23540;DHT22;11947;50.810;4.394;2023-07-31T16:58:33;18.00;99.90
23540;DHT22;11947;50.810;4.394;2023-07-31T17:01:07;18.00;99.90
23540;DHT22;11947;50.810;4.394;2023-07-31T17:03:41;18.00;99.90
23540;DHT22;11947;50.810;4.394;2023-07-31T17:06:28;18.00;99.90
23540;DHT22;11947;50.810;4.394;2023-07-31T17:09:14;18.00;99.90
23540;DHT22;11947;50.810;4.394;2023-07-31T17:11:43;18.00;99.90
23540;DHT22;11947;50.810;4.394;2023-07-31T17:18:17;18.00;99.90
23540;DHT22;11947;50.810;4.394;2023-07-31T17:44:40;18.10;99.90
23540;DHT22;11947;50.810;4.394;2023-07-31T17:47:24;18.00;99.90
23540;DHT22;11947;50.810;4.394;2023-07-31T17:49:58;18.10;99.90
23540;DHT22;11947;50.810;4.394;2023-07-31T17:52:26;18.00;99.90
23540;DHT22;11947;50.810;4.394;2023-07-31T17:54:52;18.00;99.90
23540;DHT22;11947;50.810;4.394;2023-07-31T17:57:37;18.00;99.90
23540;DHT22;11947;50.810;4.394;2023-07-31T18:00:03;18.00;99.90
23540;DHT22;11947;50.810;4.394;2023-07-31T18:02:29;18.00;99.90
23540;DHT22;11947;50.810;4.394;2023-07-31T18:04:55;18.10;99.90
23540;DHT22;11947;50.810;4.394;2023-07-31T18:07:31;18.10;99.90
23540;DHT22;11947;50.810;4.394;2023-07-31T18:10:05;18.00;99.90
23540;DHT22;11947;50.810;4.394;2023-07-31T18:12:47;18.00;99.90
23540;DHT22;11947;50.810;4.394;2023-07-31T18:17:54;18.00;99.90
23540;DHT22;11947;50.810;4.394;2023-07-31T18:20:22;18.00;99.90
23540;DHT22;11947;50.810;4.394;2023-07-31T18:22:48;18.00;99.90
23540;DHT22;11947;50.810;4.394;2023-07-31T18:25:18;17.90;99.90
23540;DHT22;11947;50.810;4.394;2023-07-31T18:27:48;17.90;99.90
23540;DHT22;11947;50.810;4.394;2023-07-31T18:30:23;17.90;99.90
23540;DHT22;11947;50.810;4.394;2023-07-31T18:32:55;18.00;99.90
23540;DHT22;11947;50.810;4.394;2023-07-31T18:35:20;18.10;99.90
23540;DHT22;11947;50.810;4.394;2023-07-31T18:37:47;18.10;99.90
23540;DHT22;11947;50.810;4.394;2023-07-31T18:40:13;18.10;99.90
23540;DHT22;11947;50.810;4.394;2023-07-31T18:42:40;18.00;99.90
23540;DHT22;11947;50.810;4.394;2023-07-31T18:45:06;18.00;99.90
23540;DHT22;11947;50.810;4.394;2023-07-31T18:47:32;18.00;99.90
23540;DHT22;11947;50.810;4.394;2023-07-31T18:49:57;18.00;99.90
23540;DHT22;11947;50.810;4.394;2023-07-31T18:52:27;17.90;99.90
23540;DHT22;11947;50.810;4.394;2023-07-31T18:54:58;18.00;99.90
23540;DHT22;11947;50.810;4.394;2023-07-31T18:57:29;17.90;99.90
23540;DHT22;11947;50.810;4.394;2023-07-31T18:59:56;17.90;99.90
23540;DHT22;11947;50.810;4.394;2023-07-31T19:08:02;18.00;99.90
23540;DHT22;11947;50.810;4.394;2023-07-31T19:10:31;18.00;99.90
23540;DHT22;11947;50.810;4.394;2023-07-31T19:12:58;18.00;99.90
23540;DHT22;11947;50.810;4.394;2023-07-31T19:15:24;18.00;99.90
23540;DHT22;11947;50.810;4.394;2023-07-31T19:17:50;18.00;99.90
23540;DHT22;11947;50.810;4.394;2023-07-31T19:20:16;18.00;99.90
23540;DHT22;11947;50.810;4.394;2023-07-31T19:22:41;18.00;99.90
23540;DHT22;11947;50.810;4.394;2023-07-31T19:25:08;18.00;99.90
23540;DHT22;11947;50.810;4.394;2023-07-31T19:27:34;18.10;99.90
23540;DHT22;11947;50.810;4.394;2023-07-31T19:29:59;18.10;99.90
23540;DHT22;11947;50.810;4.394;2023-07-31T19:32:27;18.10;99.90
23540;DHT22;11947;50.810;4.394;2023-07-31T19:34:56;18.00;99.90
23540;DHT22;11947;50.810;4.394;2023-07-31T19:37:22;18.10;99.90
23540;DHT22;11947;50.810;4.394;2023-07-31T19:43:57;18.00;99.90
23540;DHT22;11947;50.810;4.394;2023-07-31T19:46:26;17.90;99.90
23540;DHT22;11947;50.810;4.394;2023-07-31T19:48:53;18.00;99.90
23540;DHT22;11947;50.810;4.394;2023-07-31T19:51:36;17.90;99.90
23540;DHT22;11947;50.810;4.394;2023-07-31T19:54:03;18.00;99.90
23540;DHT22;11947;50.810;4.394;2023-07-31T19:56:31;18.00;99.90
23540;DHT22;11947;50.810;4.394;2023-07-31T19:58:57;18.00;99.90
23540;DHT22;11947;50.810;4.394;2023-07-31T20:01:24;18.00;99.90
23540;DHT22;11947;50.810;4.394;2023-07-31T20:03:59;18.00;99.90
23540;DHT22;11947;50.810;4.394;2023-07-31T20:14:11;18.10;99.90
23540;DHT22;11947;50.810;4.394;2023-07-31T21:15:38;18.30;99.90
23540;DHT22;11947;50.810;4.394;2023-07-31T21:18:04;18.30;99.90
23540;DHT22;11947;50.810;4.394;2023-07-31T21:20:33;18.30;99.90
23540;DHT22;11947;50.810;4.394;2023-07-31T21:23:05;18.30;99.90
23540;DHT22;11947;50.810;4.394;2023-07-31T21:25:38;18.30;99.90
23540;DHT22;11947;50.810;4.394;2023-07-31T21:28:23;18.20;99.90